createdAt,value
2022-12-23T00:01:47.356Z,4.53
2022-12-23T00:03:53.181Z,4.48
2022-12-23T00:05:59.027Z,4.48
2022-12-23T00:08:04.552Z,4.47
2022-12-23T00:10:09.662Z,4.46
2022-12-23T00:12:14.781Z,4.56
2022-12-23T00:14:21.761Z,4.55
2022-12-23T00:16:27.082Z,4.53
2022-12-23T00:18:32.592Z,4.5
2022-12-23T00:20:37.841Z,4.59
2022-12-23T00:22:43.192Z,4.6
2022-12-23T00:24:48.340Z,4.61
2022-12-23T00:26:53.581Z,4.64
2022-12-23T00:28:58.753Z,4.67
2022-12-23T00:31:04.066Z,4.62
2022-12-23T00:33:09.072Z,4.68
2022-12-23T00:35:14.744Z,4.59
2022-12-23T00:37:19.842Z,4.64
2022-12-23T00:39:25.348Z,4.67
2022-12-23T00:41:30.319Z,4.63
2022-12-23T00:43:35.716Z,4.58
2022-12-23T00:45:40.706Z,4.56
2022-12-23T00:47:46.030Z,4.52
2022-12-23T00:49:51.387Z,4.51
2022-12-23T00:51:56.876Z,4.57
2022-12-23T00:54:02.176Z,4.59
2022-12-23T00:56:07.028Z,4.59
2022-12-23T00:58:12.115Z,4.57
2022-12-23T01:00:17.544Z,4.59
2022-12-23T01:02:23.113Z,4.47
2022-12-23T01:04:29.757Z,4.52
2022-12-23T01:06:34.890Z,4.57
2022-12-23T01:08:40.288Z,4.52
2022-12-23T01:10:45.529Z,4.55
2022-12-23T01:12:50.742Z,4.6
2022-12-23T01:14:56.045Z,4.61
2022-12-23T01:17:01.265Z,4.56
2022-12-23T01:19:06.789Z,4.47
2022-12-23T01:21:12.019Z,4.48
2022-12-23T01:23:17.349Z,4.5
2022-12-23T01:25:22.796Z,4.58
2022-12-23T01:27:28.735Z,4.63
2022-12-23T01:29:34.032Z,4.62
2022-12-23T01:31:39.303Z,4.64
2022-12-23T01:33:44.933Z,4.55
2022-12-23T01:35:49.926Z,4.57
2022-12-23T01:37:55.264Z,4.55
2022-12-23T01:40:00.678Z,4.58
2022-12-23T01:42:06.151Z,4.61
2022-12-23T01:44:11.334Z,4.59
2022-12-23T01:46:16.330Z,4.63
2022-12-23T01:48:22.025Z,4.63
2022-12-23T01:50:27.407Z,4.65
2022-12-23T01:52:32.720Z,4.61
2022-12-23T01:54:38.628Z,4.63
2022-12-23T01:56:43.825Z,4.62
2022-12-23T01:58:49.150Z,4.64
2022-12-23T02:00:54.252Z,4.6
2022-12-23T02:02:59.880Z,4.58
2022-12-23T02:05:05.829Z,4.59
2022-12-23T02:07:11.076Z,4.63
2022-12-23T02:09:16.408Z,4.56
2022-12-23T02:11:21.757Z,4.55
2022-12-23T02:13:27.099Z,4.57
2022-12-23T02:15:32.260Z,4.57
2022-12-23T02:17:37.643Z,4.65
2022-12-23T02:19:45.736Z,4.73
2022-12-23T02:21:52.145Z,4.74
2022-12-23T02:23:58.137Z,4.71
2022-12-23T02:26:03.479Z,4.69
2022-12-23T02:28:08.465Z,4.71
2022-12-23T02:30:13.680Z,4.72
2022-12-23T02:32:18.760Z,4.71
2022-12-23T02:34:23.862Z,4.73
2022-12-23T02:36:29.313Z,4.78
2022-12-23T02:38:34.603Z,4.73
2022-12-23T02:40:39.489Z,4.75
2022-12-23T02:42:45.840Z,4.71
2022-12-23T02:44:51.165Z,4.75
2022-12-23T02:46:56.087Z,4.75
2022-12-23T02:49:01.868Z,4.71
2022-12-23T02:51:06.908Z,4.74
2022-12-23T02:53:12.196Z,4.76
2022-12-23T02:55:17.365Z,4.74
2022-12-23T02:57:22.515Z,4.73
2022-12-23T02:59:27.412Z,4.66
2022-12-23T03:01:32.885Z,4.73
2022-12-23T03:03:38.784Z,4.72
2022-12-23T03:05:47.992Z,4.72
2022-12-23T03:07:53.438Z,4.69
2022-12-23T03:09:58.739Z,4.66
2022-12-23T03:12:03.963Z,4.66
2022-12-23T03:14:09.334Z,4.67
2022-12-23T03:16:14.684Z,4.58
2022-12-23T03:18:20.032Z,4.56
2022-12-23T03:20:25.047Z,4.65
2022-12-23T03:22:30.333Z,4.62
2022-12-23T03:24:35.337Z,4.62
2022-12-23T03:26:40.526Z,4.63
2022-12-23T03:28:45.598Z,4.63
2022-12-23T03:30:51.747Z,4.63
2022-12-23T03:32:56.969Z,4.67
2022-12-23T03:35:02.345Z,4.63
2022-12-23T03:37:07.548Z,4.61
2022-12-23T03:39:12.636Z,4.6
2022-12-23T03:41:17.837Z,4.51
2022-12-23T03:43:23.041Z,4.45
2022-12-23T03:45:38.455Z,4.42
2022-12-23T03:47:46.210Z,4.44
2022-12-23T03:49:51.387Z,4.41
2022-12-23T03:51:56.822Z,4.44
2022-12-23T03:54:01.891Z,4.39
2022-12-23T03:56:06.955Z,4.36
2022-12-23T03:58:12.087Z,4.36
2022-12-23T04:00:17.176Z,4.44
2022-12-23T04:02:22.563Z,4.48
2022-12-23T04:04:28.123Z,4.46
2022-12-23T04:06:33.257Z,4.51
2022-12-23T04:08:38.878Z,4.58
2022-12-23T04:10:44.051Z,4.61
2022-12-23T04:12:49.072Z,4.67
2022-12-23T04:14:54.175Z,4.67
2022-12-23T04:16:59.384Z,4.64
2022-12-23T04:19:04.489Z,4.64
2022-12-23T04:21:10.251Z,4.57
2022-12-23T04:23:15.360Z,4.5
2022-12-23T04:25:20.352Z,4.5
2022-12-23T04:27:25.444Z,4.56
2022-12-23T04:29:30.716Z,4.65
2022-12-23T04:31:39.066Z,4.63
2022-12-23T04:33:44.388Z,4.67
2022-12-23T04:35:49.493Z,4.76
2022-12-23T04:37:54.480Z,4.72
2022-12-23T04:39:59.714Z,4.72
2022-12-23T04:42:04.823Z,4.71
2022-12-23T04:44:09.820Z,4.64
2022-12-23T04:46:14.884Z,4.69
2022-12-23T04:48:20.130Z,4.74
2022-12-23T04:50:25.279Z,4.79
2022-12-23T04:52:30.293Z,4.86
2022-12-23T04:54:38.116Z,4.88
2022-12-23T04:56:50.325Z,4.78
2022-12-23T04:58:55.422Z,4.7
2022-12-23T05:01:00.510Z,4.61
2022-12-23T05:03:06.167Z,4.57
2022-12-23T05:05:12.526Z,4.55
2022-12-23T05:07:17.595Z,4.57
2022-12-23T05:09:22.735Z,4.57
2022-12-23T05:11:27.845Z,4.57
2022-12-23T05:13:33.181Z,4.51
2022-12-23T05:15:38.223Z,4.55
2022-12-23T05:17:43.296Z,4.59
2022-12-23T05:19:48.507Z,4.55
2022-12-23T05:21:54.709Z,4.49
2022-12-23T05:24:01.348Z,4.47
2022-12-23T05:26:06.490Z,4.5
2022-12-23T05:28:11.803Z,4.48
2022-12-23T05:30:17.115Z,4.49
2022-12-23T05:32:22.197Z,4.44
2022-12-23T05:34:27.496Z,4.39
2022-12-23T05:36:32.710Z,4.49
2022-12-23T05:38:37.828Z,4.47
2022-12-23T05:40:42.757Z,4.44
2022-12-23T05:42:48.799Z,4.49
2022-12-23T05:44:53.805Z,4.49
2022-12-23T05:46:58.922Z,4.52
2022-12-23T05:49:04.134Z,4.44
2022-12-23T05:51:09.443Z,4.34
2022-12-23T05:53:14.607Z,4.39
2022-12-23T05:55:19.779Z,4.5
2022-12-23T05:57:24.878Z,4.53
2022-12-23T05:59:31.446Z,4.55
2022-12-23T06:01:36.945Z,4.52
2022-12-23T06:03:43.123Z,4.51
2022-12-23T06:05:48.815Z,4.52
2022-12-23T06:07:53.904Z,4.56
2022-12-23T06:09:59.066Z,4.61
2022-12-23T06:12:05.079Z,4.56
2022-12-23T06:14:10.384Z,4.46
2022-12-23T06:16:16.001Z,4.48
2022-12-23T06:18:21.564Z,4.43
2022-12-23T06:20:26.826Z,4.36
2022-12-23T06:22:31.874Z,4.37
2022-12-23T06:24:37.195Z,4.32
2022-12-23T06:26:42.507Z,4.3
2022-12-23T06:28:47.999Z,4.26
2022-12-23T06:30:53.638Z,4.11
2022-12-23T06:32:58.611Z,4.04
2022-12-23T06:35:04.431Z,4.08
2022-12-23T06:37:10.506Z,4.18
2022-12-23T06:39:15.851Z,4.17
2022-12-23T06:41:21.007Z,4.22
2022-12-23T06:43:29.541Z,4.23
2022-12-23T06:45:37.255Z,4.23
2022-12-23T06:47:42.730Z,4.23
2022-12-23T06:49:47.826Z,4.22
2022-12-23T06:51:52.970Z,4.26
2022-12-23T06:53:58.024Z,4.23
2022-12-23T06:56:03.170Z,4.12
2022-12-23T06:58:08.672Z,4.08
2022-12-23T07:00:13.735Z,4.06
2022-12-23T07:02:19.301Z,4
2022-12-23T07:04:25.568Z,4
2022-12-23T07:06:30.979Z,4.1
2022-12-23T07:08:36.507Z,4.17
2022-12-23T07:10:42.434Z,4.27
2022-12-23T07:12:50.801Z,4.36
2022-12-23T07:14:57.303Z,4.4
2022-12-23T07:17:03.338Z,4.46
2022-12-23T07:19:09.126Z,4.47
2022-12-23T07:21:21.528Z,4.52
2022-12-23T07:23:33.471Z,4.53
2022-12-23T07:25:38.673Z,4.58
2022-12-23T07:27:44.359Z,4.6
2022-12-23T07:29:49.921Z,4.64
2022-12-23T07:31:55.222Z,4.63
2022-12-23T07:34:01.695Z,4.59
2022-12-23T07:36:06.845Z,4.63
2022-12-23T07:38:12.319Z,4.64
2022-12-23T07:40:18.001Z,4.64
2022-12-23T07:44:58.793Z,4.63
2022-12-23T07:47:03.957Z,4.64
2022-12-23T07:49:10.732Z,4.69
2022-12-23T07:51:16.782Z,4.72
2022-12-23T07:53:21.815Z,4.74
2022-12-23T07:55:27.625Z,4.76
2022-12-23T07:57:32.715Z,4.81
2022-12-23T07:59:38.068Z,4.81
2022-12-23T08:01:43.231Z,4.77
2022-12-23T08:03:50.742Z,4.81
2022-12-23T08:05:57.599Z,4.88
2022-12-23T08:08:03.257Z,4.85
2022-12-23T08:10:08.283Z,4.85
2022-12-23T08:12:13.437Z,4.85
2022-12-23T08:14:18.675Z,4.87
2022-12-23T08:16:24.131Z,4.88
2022-12-23T08:18:29.536Z,4.86
2022-12-23T08:20:34.613Z,4.98
2022-12-23T08:22:39.697Z,5.02
2022-12-23T08:24:45.067Z,5.04
2022-12-23T08:26:50.365Z,5.11
2022-12-23T08:28:55.806Z,5.03
2022-12-23T08:31:01.536Z,5
2022-12-23T08:33:08.130Z,5.01
2022-12-23T08:35:15.022Z,5
2022-12-23T08:37:20.651Z,4.99
2022-12-23T08:39:26.456Z,4.91
2022-12-23T08:41:32.205Z,4.96
2022-12-23T08:43:37.469Z,5.01
2022-12-23T08:45:42.500Z,5.05
2022-12-23T08:47:48.810Z,5.05
2022-12-23T08:49:55.186Z,5.11
2022-12-23T08:52:00.376Z,5.16
2022-12-23T08:54:05.502Z,5.12
2022-12-23T08:56:10.770Z,5.09
2022-12-23T08:58:15.889Z,5.06
2022-12-23T09:00:21.316Z,5.22
2022-12-23T09:02:26.854Z,5.22
2022-12-23T09:04:33.020Z,5.3
2022-12-23T09:06:38.179Z,5.28
2022-12-23T09:08:43.564Z,5.3
2022-12-23T09:10:48.757Z,5.23
2022-12-23T09:12:56.026Z,5.28
2022-12-23T09:15:03.271Z,5.14
2022-12-23T09:17:09.651Z,5.1
2022-12-23T09:19:15.069Z,5.22
2022-12-23T09:21:20.324Z,5.17
2022-12-23T09:23:25.367Z,5.09
2022-12-23T09:25:31.274Z,5.16
2022-12-23T09:27:36.593Z,5.19
2022-12-23T09:29:42.748Z,5.23
2022-12-23T09:31:48.507Z,5.2
2022-12-23T09:33:54.611Z,5.18
2022-12-23T09:36:01.688Z,5.17
2022-12-23T09:38:06.761Z,5.24
2022-12-23T09:40:11.880Z,5.35
2022-12-23T09:42:17.383Z,5.37
2022-12-23T09:44:22.664Z,5.39
2022-12-23T09:46:27.930Z,5.42
2022-12-23T09:48:33.544Z,5.38
2022-12-23T09:50:38.912Z,5.47
2022-12-23T09:52:44.180Z,5.51
2022-12-23T09:54:49.256Z,5.55
2022-12-23T09:56:54.614Z,5.61
2022-12-23T09:59:00.105Z,5.63
2022-12-23T10:01:05.028Z,5.64
2022-12-23T10:03:13.496Z,5.62
2022-12-23T10:05:20.964Z,5.68
2022-12-23T10:07:26.320Z,5.63
2022-12-23T10:09:31.778Z,5.61
2022-12-23T10:11:37.415Z,5.55
2022-12-23T10:13:42.678Z,5.56
2022-12-23T10:15:47.992Z,5.57
2022-12-23T10:17:53.431Z,5.48
2022-12-23T10:19:59.420Z,5.47
2022-12-23T10:22:05.818Z,5.44
2022-12-23T10:24:11.510Z,5.35
2022-12-23T10:26:17.740Z,5.47
2022-12-23T10:28:24.328Z,5.48
2022-12-23T10:31:05.601Z,5.39
2022-12-23T10:33:45.474Z,5.51
2022-12-23T10:35:51.850Z,5.57
2022-12-23T10:37:57.866Z,5.63
2022-12-23T10:40:03.685Z,5.49
2022-12-23T10:42:08.783Z,5.52
2022-12-23T10:44:14.686Z,5.44
2022-12-23T10:46:21.515Z,5.45
2022-12-23T10:48:27.684Z,5.45
2022-12-23T10:50:36.020Z,5.39
2022-12-23T10:52:42.971Z,5.33
2022-12-23T10:54:48.425Z,5.34
2022-12-23T10:56:55.102Z,5.28
2022-12-23T10:59:00.680Z,5.28
2022-12-23T11:01:11.983Z,5.29
2022-12-23T11:03:31.462Z,5.34
2022-12-23T11:05:38.480Z,5.26
2022-12-23T11:07:45.632Z,5.2
2022-12-23T11:09:51.332Z,5.23
2022-12-23T11:11:56.396Z,5.32
2022-12-23T11:14:01.797Z,5.43
2022-12-23T11:16:07.299Z,5.39
2022-12-23T11:18:13.588Z,5.48
2022-12-23T11:20:20.016Z,5.46
2022-12-23T11:22:25.783Z,5.4
2022-12-23T11:24:31.647Z,5.35
2022-12-23T11:26:47.295Z,5.35
2022-12-23T11:28:53.849Z,5.34
2022-12-23T11:30:59.133Z,5.4
2022-12-23T11:33:05.575Z,5.48
2022-12-23T11:35:11.816Z,5.61
2022-12-23T11:37:18.241Z,5.66
2022-12-23T11:39:26.236Z,5.64
2022-12-23T11:41:32.515Z,5.67
2022-12-23T11:43:38.935Z,5.65
2022-12-23T11:45:45.880Z,5.66
2022-12-23T11:47:52.986Z,5.67
2022-12-23T11:49:59.508Z,5.65
2022-12-23T11:52:05.093Z,5.59
2022-12-23T11:54:10.945Z,5.63
2022-12-23T11:56:17.188Z,5.66
2022-12-23T11:58:22.637Z,5.66
2022-12-23T12:00:27.924Z,5.74
2022-12-23T12:02:33.786Z,5.75
2022-12-23T12:04:41.687Z,5.74
2022-12-23T12:06:52.749Z,5.79
2022-12-23T12:09:01.722Z,5.8
2022-12-23T12:11:07.568Z,5.76
2022-12-23T12:13:13.436Z,5.82
2022-12-23T12:15:19.123Z,5.87
2022-12-23T12:17:24.611Z,5.94
2022-12-23T12:19:30.648Z,5.88
2022-12-23T12:21:36.435Z,5.98
2022-12-23T12:23:43.730Z,6.01
2022-12-23T12:26:21.930Z,6.1
2022-12-23T12:28:28.832Z,6
2022-12-23T12:30:34.448Z,5.95
2022-12-23T12:32:44.934Z,5.91
2022-12-23T12:34:53.518Z,5.91
2022-12-23T12:37:01.767Z,5.93
2022-12-23T12:39:10.507Z,6.02
2022-12-23T12:43:59.067Z,5.96
2022-12-23T12:48:38.985Z,6
2022-12-23T12:53:07.422Z,6
2022-12-23T12:55:20.234Z,6.04
2022-12-23T12:57:26.309Z,6.08
2022-12-23T12:59:32.795Z,6.08
2022-12-23T13:01:39.624Z,6.13
2022-12-23T13:03:46.156Z,6.09
2022-12-23T13:05:54.015Z,6.13
2022-12-23T13:07:59.635Z,6.09
2022-12-23T13:10:05.550Z,6.07
2022-12-23T13:12:11.644Z,6.09
2022-12-23T13:14:18.501Z,6.08
2022-12-23T13:16:24.153Z,6.08
2022-12-23T13:18:30.356Z,6.07
2022-12-23T13:20:36.334Z,6.14
2022-12-23T13:22:44.010Z,6.17
2022-12-23T13:24:50.349Z,6.09
2022-12-23T13:26:57.235Z,6.11
2022-12-23T13:29:03.658Z,6.12
2022-12-23T13:31:11.537Z,6.17
2022-12-23T13:33:18.547Z,6.14
2022-12-23T13:35:24.400Z,6.1
2022-12-23T13:37:30.946Z,6.11
2022-12-23T13:49:11.739Z,6.24
2022-12-23T13:51:26.512Z,6.29
2022-12-23T13:56:15.933Z,6.34
2022-12-23T13:58:22.456Z,6.36
2022-12-23T14:02:49.938Z,6.32
2022-12-23T14:04:59.243Z,6.34
2022-12-23T14:09:40.975Z,6.32
2022-12-23T14:11:48.312Z,6.32
2022-12-23T14:13:56.098Z,6.33
2022-12-23T14:16:04.316Z,6.29
2022-12-23T14:18:11.165Z,6.31
2022-12-23T14:20:18.861Z,6.28
2022-12-23T14:32:29.776Z,6.38
2022-12-23T14:34:35.868Z,6.29
2022-12-23T14:36:43.563Z,6.29
2022-12-23T14:38:49.978Z,6.33
2022-12-23T14:47:35.495Z,6.33
2022-12-23T14:50:26.572Z,6.36
2022-12-23T15:01:12.499Z,6.38
2022-12-23T15:16:29.423Z,6.33
2022-12-23T15:24:59.949Z,6.27
2022-12-23T17:42:53.622Z,6.65
2022-12-23T17:51:58.303Z,6.71
2022-12-23T17:54:07.675Z,6.65
2022-12-23T17:56:15.739Z,6.57
2022-12-23T17:58:28.773Z,6.71
2022-12-23T18:00:40.262Z,6.71
2022-12-23T18:03:01.927Z,6.65
